Time;durP1;ratioP1;P1;durP2;ratioP2;P2;SDS_P1;SDS_P2;PMS_P1;PMS_P2;Temp;Humidity;BMP_temperature;BMP_pressure;BME280_temperature;BME280_humidity;BME280_pressure;Samples;Min_cycle;Max_cycle;Signal;HPM_P1;HPM_P2
2022/06/15 00:02:16;;;;;;;4.40;2.90;;;;;;;21.66;55.50;99874.88;5067278;28;20418;-84
2022/06/15 00:04:41;;;;;;;1.88;1.58;;;;;;;21.74;55.53;99873.50;5068527;28;20056;-85
2022/06/15 00:07:07;;;;;;;1.70;1.23;;;;;;;21.58;55.86;99859.22;5067877;28;20036;-84
2022/06/15 00:09:32;;;;;;;1.02;0.93;;;;;;;21.58;55.72;99848.50;5068742;28;20569;-84
2022/06/15 00:11:58;;;;;;;7.95;2.60;;;;;;;21.24;56.18;99837.00;5068119;28;20028;-84
2022/06/15 00:14:27;;;;;;;3.00;1.60;;;;;;;21.15;56.92;99870.59;5068713;28;20862;-85
2022/06/15 00:16:53;;;;;;;1.42;0.98;;;;;;;21.11;56.81;99835.00;5068126;28;20043;-86
2022/06/15 00:19:20;;;;;;;0.88;0.77;;;;;;;21.16;57.17;99845.47;5050052;28;20040;-85
2022/06/15 00:21:46;;;;;;;1.63;1.27;;;;;;;21.08;56.41;99842.38;5049908;28;20056;-84
2022/06/15 00:24:11;;;;;;;2.28;1.30;;;;;;;21.37;56.25;99867.53;5067646;28;20033;-84
2022/06/15 00:26:38;;;;;;;0.93;0.85;;;;;;;21.47;55.94;99857.13;5049768;28;20032;-84
2022/06/15 00:29:03;;;;;;;2.38;1.17;;;;;;;21.26;56.58;99870.84;5067879;28;20036;-83
2022/06/15 00:31:29;;;;;;;1.20;1.10;;;;;;;21.28;56.21;99865.38;5067406;28;20703;-84
2022/06/15 00:33:54;;;;;;;1.90;1.00;;;;;;;21.25;56.21;99852.13;5067419;28;20118;-84
2022/06/15 00:36:21;;;;;;;1.98;1.33;;;;;;;21.44;55.52;99857.31;5066872;28;20032;-84
2022/06/15 00:38:55;;;;;;;1.63;0.95;;;;;;;20.81;56.53;99844.78;5068411;28;20025;-84
2022/06/15 00:41:28;;;;;;;1.73;0.98;;;;;;;21.00;56.69;99858.03;5068293;28;20117;-84
2022/06/15 00:43:56;;;;;;;4.32;1.75;;;;;;;20.76;57.05;99853.09;5063586;28;20032;-84
2022/06/15 00:46:37;;;;;;;0.77;0.70;;;;;;;20.80;58.20;99876.06;5067627;28;20048;-85
2022/06/15 00:49:24;;;;;;;1.63;0.90;;;;;;;20.71;57.52;99858.69;5068006;28;20055;-85
2022/06/15 00:51:53;;;;;;;1.90;1.30;;;;;;;20.77;57.78;99857.47;5066891;28;20058;-84
2022/06/15 00:54:22;;;;;;;0.63;0.60;;;;;;;20.79;57.28;99866.31;5067375;28;20048;-85
2022/06/15 00:56:49;;;;;;;2.30;1.00;;;;;;;20.84;57.14;99863.38;5067235;28;20041;-85
2022/06/15 00:59:22;;;;;;;2.17;1.48;;;;;;;20.65;57.12;99842.94;5068094;28;20115;-85
2022/06/15 01:01:48;;;;;;;7.13;4.13;;;;;;;20.59;56.82;99840.56;5067004;28;20081;-84
2022/06/15 01:04:16;;;;;;;1.20;1.10;;;;;;;20.76;56.99;99863.81;5068369;28;20498;-85
2022/06/15 01:06:50;;;;;;;1.45;0.90;;;;;;;20.70;57.02;99853.41;5066172;28;20514;-85
2022/06/15 01:09:28;;;;;;;2.10;1.15;;;;;;;20.63;56.84;99838.56;5067747;28;20127;-85
2022/06/15 01:11:53;;;;;;;4.97;2.08;;;;;;;20.77;56.40;99862.84;5066671;28;20040;-86
2022/06/15 01:14:54;;;;;;;1.83;1.63;;;;;;;20.77;56.86;99860.16;5067288;28;20082;-85
2022/06/15 01:17:51;;;;;;;1.40;1.15;;;;;;;20.65;57.18;99861.72;5059506;28;20074;-85
2022/06/15 01:20:32;;;;;;;3.88;1.13;;;;;;;20.69;56.75;99865.94;5046264;28;20044;-85
2022/06/15 01:23:16;;;;;;;1.90;1.20;;;;;;;20.54;56.74;99864.03;5062058;28;20040;-83
2022/06/15 01:26:18;;;;;;;2.10;1.60;;;;;;;20.42;56.08;99862.03;5049732;28;20945;-84
2022/06/15 01:28:51;;;;;;;1.92;1.55;;;;;;;20.14;56.53;99826.88;5066715;28;20032;-83
2022/06/15 01:31:41;;;;;;;1.02;0.90;;;;;;;20.33;56.51;99863.41;5067094;28;20131;-83
2022/06/15 01:34:21;;;;;;;2.20;1.17;;;;;;;20.32;56.37;99857.16;5067576;28;20090;-83
2022/06/15 01:36:52;;;;;;;1.08;0.90;;;;;;;20.43;55.94;99859.25;5067573;28;20063;-84
2022/06/15 01:39:35;;;;;;;3.47;1.30;;;;;;;20.35;55.79;99867.69;5067016;28;20036;-83
2022/06/15 01:42:40;;;;;;;1.80;1.30;;;;;;;20.45;55.63;99867.22;5066643;28;20547;-83
2022/06/15 01:45:10;;;;;;;2.00;0.90;;;;;;;20.30;55.55;99858.19;5051781;28;20127;-83
2022/06/15 01:47:39;;;;;;;1.15;0.85;;;;;;;20.19;55.33;99842.69;5066815;28;20037;-84
2022/06/15 01:50:15;;;;;;;1.38;0.90;;;;;;;20.26;54.23;99830.69;5066691;28;20032;-85
2022/06/15 01:52:46;;;;;;;1.02;0.70;;;;;;;20.12;53.94;99827.88;5066604;28;20120;-84
2022/06/15 01:55:19;;;;;;;1.90;1.00;;;;;;;20.42;53.76;99870.94;5066856;28;20513;-85
2022/06/15 01:57:49;;;;;;;2.00;0.82;;;;;;;20.43;53.65;99869.97;5066394;28;20033;-84
2022/06/15 02:00:17;;;;;;;2.17;1.50;;;;;;;20.38;53.63;99872.91;5066904;28;20518;-84
2022/06/15 02:03:01;;;;;;;1.67;1.33;;;;;;;20.55;53.74;99884.53;5066121;28;20036;-84
2022/06/15 02:05:58;;;;;;;1.33;1.20;;;;;;;20.39;53.95;99880.00;5066584;28;20040;-84
2022/06/15 02:08:47;;;;;;;1.58;0.80;;;;;;;20.37;53.72;99876.53;5045628;28;20525;-84
2022/06/15 02:11:30;;;;;;;0.70;0.60;;;;;;;20.31;53.34;99876.88;5039701;28;20135;-84
2022/06/15 02:14:07;;;;;;;0.77;0.75;;;;;;;20.41;53.15;99900.50;5066293;28;20044;-86
2022/06/15 02:16:46;;;;;;;1.95;0.90;;;;;;;20.15;52.46;99879.47;5066576;28;20060;-85
2022/06/15 02:19:15;;;;;;;2.38;0.85;;;;;;;20.19;51.93;99894.44;5066544;28;20040;-85
2022/06/15 02:21:44;;;;;;;2.05;1.30;;;;;;;20.00;52.89;99857.03;5065140;28;20072;-85
2022/06/15 02:24:12;;;;;;;4.47;2.88;;;;;;;20.15;51.85;99886.63;5064627;28;20429;-85
2022/06/15 02:26:39;;;;;;;5.32;1.10;;;;;;;20.05;52.29;99875.53;5065002;28;20029;-86
2022/06/15 02:29:10;;;;;;;1.15;0.80;;;;;;;20.04;51.78;99874.66;5066344;28;20528;-86
2022/06/15 02:31:37;;;;;;;0.63;0.63;;;;;;;19.98;51.58;99872.28;5046681;28;20603;-85
2022/06/15 02:34:03;;;;;;;1.33;1.08;;;;;;;20.25;51.69;99903.97;5064544;28;20036;-86
2022/06/15 02:36:32;;;;;;;2.83;1.48;;;;;;;20.00;51.84;99850.78;5063966;28;20055;-85
2022/06/15 02:38:58;;;;;;;0.80;0.68;;;;;;;20.06;51.36;99879.06;5064938;28;20577;-84
2022/06/15 02:41:25;;;;;;;1.92;1.30;;;;;;;19.91;51.96;99888.75;5065580;28;20088;-84
2022/06/15 02:43:54;;;;;;;0.90;0.52;;;;;;;20.13;51.23;99908.13;5066282;28;20414;-86
2022/06/15 02:46:21;;;;;;;1.80;0.88;;;;;;;19.91;52.00;99895.00;5064778;28;20040;-84
2022/06/15 02:48:47;;;;;;;1.45;0.98;;;;;;;19.98;51.72;99895.53;5066641;28;20054;-85
2022/06/15 02:51:41;;;;;;;1.45;1.00;;;;;;;19.90;52.02;99903.09;5065689;28;20037;-84
2022/06/15 02:54:21;;;;;;;1.55;0.73;;;;;;;20.08;51.48;99917.34;5057170;28;20036;-84
2022/06/15 02:56:47;;;;;;;0.50;0.50;;;;;;;19.99;51.96;99902.63;5066001;28;20028;-84
2022/06/15 02:59:12;;;;;;;1.17;1.08;;;;;;;20.21;51.99;99924.66;5062141;28;20044;-84
2022/06/15 03:01:38;;;;;;;1.58;0.85;;;;;;;20.09;52.08;99921.75;5054693;28;20037;-84
2022/06/15 03:04:04;;;;;;;4.65;1.45;;;;;;;20.16;51.37;99941.94;5065971;28;20032;-84
2022/06/15 03:06:29;;;;;;;1.15;0.98;;;;;;;19.96;51.85;99914.34;5065637;28;20032;-85
2022/06/15 03:08:56;;;;;;;3.05;2.08;;;;;;;20.11;51.55;99911.81;5066773;28;20032;-85
2022/06/15 03:11:24;;;;;;;3.72;1.85;;;;;;;20.25;52.06;99922.72;5065946;28;20109;-85
2022/06/15 03:13:50;;;;;;;1.02;0.68;;;;;;;20.06;52.04;99912.06;5066319;28;20032;-85
2022/06/15 03:16:16;;;;;;;9.95;1.13;;;;;;;20.25;51.69;99930.75;5058135;28;20544;-84
2022/06/15 03:18:41;;;;;;;0.98;0.85;;;;;;;20.26;52.29;99937.81;5046613;28;20033;-85
2022/06/15 03:21:07;;;;;;;1.17;0.57;;;;;;;20.29;52.70;99935.00;5054032;28;20511;-84
2022/06/15 03:23:32;;;;;;;2.33;1.48;;;;;;;20.12;52.86;99933.16;5053651;28;20037;-84
2022/06/15 03:26:00;;;;;;;1.70;1.00;;;;;;;20.17;53.01;99933.81;5066271;28;20025;-86
2022/06/15 03:28:25;;;;;;;1.05;0.95;;;;;;;20.36;53.68;99955.16;5046322;28;20037;-84
2022/06/15 03:30:52;;;;;;;1.08;0.60;;;;;;;20.43;52.93;99960.22;5056775;28;20040;-83
2022/06/15 03:33:18;;;;;;;1.75;0.88;;;;;;;20.06;53.56;99928.13;5062956;28;20029;-88
2022/06/15 03:35:45;;;;;;;1.25;1.10;;;;;;;20.28;53.43;99953.81;5065893;28;20115;-85
2022/06/15 03:38:11;;;;;;;1.55;1.00;;;;;;;20.48;53.71;99961.72;5066573;28;20044;-84
2022/06/15 03:40:39;;;;;;;2.85;1.02;;;;;;;20.44;53.02;99937.84;5065791;28;20572;-84
2022/06/15 03:43:05;;;;;;;1.83;1.23;;;;;;;20.39;53.83;99940.75;5066074;28;20129;-85
2022/06/15 03:45:30;;;;;;;2.25;2.00;;;;;;;20.57;53.69;99958.56;5064486;28;20129;-83
2022/06/15 03:47:56;;;;;;;0.85;0.73;;;;;;;20.57;53.75;99955.88;5066365;28;20040;-83
2022/06/15 03:50:23;;;;;;;1.95;1.08;;;;;;;20.70;53.69;99966.00;5065880;28;20525;-84
2022/06/15 03:52:49;;;;;;;1.10;0.70;;;;;;;20.42;53.66;99945.06;5065710;28;20097;-83
2022/06/15 03:55:15;;;;;;;1.10;0.88;;;;;;;20.55;53.72;99947.03;5065978;28;20059;-84
2022/06/15 03:57:41;;;;;;;2.25;1.55;;;;;;;20.89;53.07;99937.22;5065924;28;20037;-83
2022/06/15 04:00:08;;;;;;;0.95;0.70;;;;;;;20.86;52.40;99944.59;5066658;28;20521;-83
2022/06/15 04:02:33;;;;;;;3.50;1.15;;;;;;;21.05;52.55;99961.41;5064966;28;20119;-84
2022/06/15 04:04:59;;;;;;;1.65;1.42;;;;;;;21.08;52.38;99949.63;5065757;28;20131;-83
2022/06/15 04:10:13;;;;;;;2.85;1.42;;;;;;;21.46;51.95;99962.75;5068297;28;20102;-86
2022/06/15 04:12:38;;;;;;;1.45;1.23;;;;;;;21.30;52.18;99941.25;5061356;28;20120;-87
2022/06/15 04:15:05;;;;;;;1.35;0.73;;;;;;;21.57;52.63;99965.72;5068515;28;20119;-86
2022/06/15 04:17:31;;;;;;;1.75;0.95;;;;;;;21.51;51.39;99952.66;5069342;28;20479;-85
2022/06/15 04:22:41;;;;;;;1.07;0.80;;;;;;;22.05;50.52;99937.97;5069237;28;20056;-87
2022/06/15 04:25:07;;;;;;;1.40;1.10;;;;;;;21.92;49.42;99946.75;5065548;28;20498;-85
2022/06/15 04:27:33;;;;;;;1.75;1.10;;;;;;;22.04;48.63;99947.81;5059332;28;20033;-86
2022/06/15 04:30:00;;;;;;;1.55;0.90;;;;;;;21.92;49.78;99937.81;5066755;28;20130;-86
2022/06/15 04:32:27;;;;;;;1.55;1.05;;;;;;;21.93;48.30;99961.88;5068066;28;20134;-84
2022/06/15 04:34:52;;;;;;;1.15;0.95;;;;;;;22.08;48.43;99965.50;5068456;28;20109;-83
2022/06/15 04:37:18;;;;;;;0.95;0.57;;;;;;;22.02;47.81;99930.94;5068304;28;20478;-83
2022/06/15 04:39:43;;;;;;;1.42;1.20;;;;;;;22.52;47.40;99962.03;5068982;28;20471;-84
2022/06/15 04:42:09;;;;;;;1.55;0.80;;;;;;;22.44;47.08;99979.56;5064408;28;20024;-84
2022/06/15 04:44:34;;;;;;;2.53;1.85;;;;;;;22.20;46.98;99949.59;5068724;28;20081;-85
2022/06/15 04:47:01;;;;;;;2.08;1.55;;;;;;;22.05;46.94;99949.56;5068755;28;20060;-85
2022/06/15 04:49:27;;;;;;;0.75;0.73;;;;;;;22.28;47.10;99969.69;5067618;28;20032;-83
2022/06/15 04:51:53;;;;;;;1.58;1.15;;;;;;;22.12;47.98;99963.50;5067952;28;20047;-82
2022/06/15 04:54:18;;;;;;;2.60;1.33;;;;;;;22.23;46.36;99960.19;5066993;28;20052;-85
2022/06/15 04:56:44;;;;;;;2.03;1.13;;;;;;;22.51;47.26;99928.03;5068877;28;20098;-82
2022/06/15 04:59:10;;;;;;;4.28;1.00;;;;;;;22.78;46.85;99943.44;5068152;28;20093;-83
2022/06/15 05:01:35;;;;;;;1.45;0.85;;;;;;;23.03;45.98;99964.31;5068102;28;20119;-83
2022/06/15 05:04:01;;;;;;;1.95;1.27;;;;;;;23.22;45.45;99925.50;5068073;28;20476;-84
2022/06/15 05:06:26;;;;;;;0.50;0.50;;;;;;;23.37;45.30;99940.66;5067728;28;20033;-84
2022/06/15 05:08:52;;;;;;;3.33;1.05;;;;;;;23.12;43.70;99968.25;5049311;28;20158;-83
2022/06/15 05:11:17;;;;;;;0.75;0.60;;;;;;;23.05;44.26;99959.69;5068164;28;20025;-83
2022/06/15 05:13:43;;;;;;;0.85;0.77;;;;;;;23.34;45.68;99959.69;5067717;28;20036;-83
2022/06/15 05:16:08;;;;;;;1.38;0.85;;;;;;;23.58;44.04;99959.06;5063372;28;20170;-84
2022/06/15 05:18:34;;;;;;;1.58;0.73;;;;;;;23.28;43.96;99954.72;5068053;28;20032;-86
2022/06/15 05:21:03;;;;;;;1.13;0.90;;;;;;;23.48;44.96;99956.13;5066616;28;20074;-83
2022/06/15 05:23:28;;;;;;;2.15;1.20;;;;;;;23.63;40.95;99983.00;5050630;28;20032;-83
2022/06/15 05:25:54;;;;;;;1.42;0.68;;;;;;;23.74;41.67;99986.75;5047287;28;20037;-83
2022/06/15 05:28:19;;;;;;;3.88;1.15;;;;;;;23.36;39.91;99954.22;5047461;28;20473;-82
2022/06/15 05:30:45;;;;;;;1.05;0.73;;;;;;;23.54;42.16;99985.34;5047274;28;20064;-84
2022/06/15 05:33:11;;;;;;;0.90;0.75;;;;;;;23.19;40.62;99963.38;5049370;28;20790;-88
2022/06/15 05:35:36;;;;;;;1.20;0.98;;;;;;;23.08;42.41;99977.47;5049401;28;20047;-84
2022/06/15 05:38:02;;;;;;;0.90;0.85;;;;;;;23.31;40.89;99969.78;5068682;28;20032;-84
2022/06/15 05:40:27;;;;;;;1.17;1.05;;;;;;;23.47;40.49;99975.91;5067885;28;20025;-86
2022/06/15 05:42:53;;;;;;;1.25;0.90;;;;;;;23.29;41.65;99961.81;5067205;28;20028;-85
2022/06/15 05:45:18;;;;;;;1.98;0.98;;;;;;;23.57;41.28;99979.75;5068369;28;20036;-85
2022/06/15 05:47:45;;;;;;;1.05;0.50;;;;;;;23.95;39.98;99989.00;5067851;28;20036;-84
2022/06/15 05:50:13;;;;;;;0.60;0.57;;;;;;;23.65;40.22;99968.50;5068101;28;20090;-87
2022/06/15 05:52:38;;;;;;;1.27;0.93;;;;;;;23.55;40.84;99945.81;5063629;28;20039;-83
2022/06/15 05:55:04;;;;;;;1.33;1.23;;;;;;;23.39;39.92;99952.19;5067678;28;20457;-84
2022/06/15 05:57:30;;;;;;;1.00;0.82;;;;;;;23.89;41.74;99992.09;5067650;28;20528;-84
2022/06/15 05:59:57;;;;;;;1.35;0.80;;;;;;;24.06;42.37;99972.13;5066900;28;20036;-85
2022/06/15 06:02:25;;;;;;;1.63;0.98;;;;;;;23.98;39.59;99972.63;5065693;28;20044;-84
2022/06/15 06:04:51;;;;;;;1.02;0.68;;;;;;;24.29;41.59;99973.28;5066558;28;20043;-84
2022/06/15 06:07:18;;;;;;;0.73;0.70;;;;;;;24.55;40.73;99989.50;5066920;28;20070;-85
2022/06/15 06:09:44;;;;;;;1.38;0.80;;;;;;;24.24;39.43;99978.97;5067651;28;20064;-87
2022/06/15 06:12:10;;;;;;;1.00;0.70;;;;;;;24.42;38.26;99967.91;5066020;28;20555;-85
2022/06/15 06:14:37;;;;;;;1.70;1.30;;;;;;;24.23;38.45;99992.56;5066931;28;20545;-87
2022/06/15 06:17:04;;;;;;;2.38;1.58;;;;;;;24.26;40.17;99973.47;5066532;28;20113;-86
2022/06/15 06:19:29;;;;;;;0.75;0.60;;;;;;;24.33;39.70;99957.75;5062682;28;20029;-85
2022/06/15 06:21:55;;;;;;;1.33;1.13;;;;;;;24.57;38.38;99990.25;5065688;28;20051;-85
2022/06/15 06:24:20;;;;;;;1.95;1.55;;;;;;;24.70;38.81;100009.19;5066405;28;20403;-84
2022/06/15 06:26:46;;;;;;;1.38;0.88;;;;;;;24.87;39.75;99994.53;5065485;28;20040;-86
2022/06/15 06:29:15;;;;;;;1.42;0.75;;;;;;;25.03;38.84;99977.16;5066707;28;20036;-84
2022/06/15 06:31:41;;;;;;;1.45;0.70;;;;;;;24.91;37.94;99979.88;5065914;28;20039;-84
2022/06/15 06:34:06;;;;;;;0.60;0.60;;;;;;;24.94;39.33;99988.59;5067245;28;20036;-85
2022/06/15 06:36:33;;;;;;;2.08;1.20;;;;;;;24.85;39.68;99986.53;5066758;28;20474;-84
2022/06/15 06:39:02;;;;;;;1.80;1.40;;;;;;;25.31;39.13;99982.44;5067000;28;20060;-84
2022/06/15 06:41:30;;;;;;;1.52;0.68;;;;;;;25.17;39.16;99986.09;5066287;28;20438;-84
2022/06/15 06:43:56;;;;;;;2.47;1.73;;;;;;;25.26;36.34;100008.91;5067046;28;20650;-84
2022/06/15 06:46:22;;;;;;;0.65;0.55;;;;;;;25.08;37.95;99970.56;5066842;28;20123;-85
2022/06/15 06:48:47;;;;;;;2.10;1.42;;;;;;;25.55;36.67;99999.56;5066735;28;20032;-83
2022/06/15 06:51:13;;;;;;;0.52;0.50;;;;;;;25.60;37.32;99987.59;5065504;28;20044;-84
2022/06/15 06:53:39;;;;;;;0.50;0.47;;;;;;;26.09;37.71;99986.69;5066275;28;20110;-84
2022/06/15 06:56:08;;;;;;;0.93;0.80;;;;;;;25.68;37.21;99974.38;5066109;28;20040;-85
2022/06/15 06:58:34;;;;;;;0.40;0.40;;;;;;;26.18;37.99;100006.72;5066431;28;20063;-84
2022/06/15 07:01:00;;;;;;;2.53;1.27;;;;;;;26.14;36.59;100003.41;5065549;28;20054;-84
2022/06/15 07:03:25;;;;;;;1.00;0.70;;;;;;;26.18;36.07;100012.13;5048659;28;20033;-85
2022/06/15 07:05:51;;;;;;;1.17;0.60;;;;;;;25.71;35.22;99996.59;5065596;28;20482;-83
2022/06/15 07:08:17;;;;;;;0.95;0.60;;;;;;;26.16;37.75;99993.31;5067030;28;20132;-83
2022/06/15 07:10:43;;;;;;;1.10;0.98;;;;;;;26.21;35.63;99993.88;5066024;28;20167;-84
2022/06/15 07:13:09;;;;;;;3.80;1.67;;;;;;;25.85;36.05;99987.47;5066482;28;20032;-83
2022/06/15 07:15:36;;;;;;;1.55;0.90;;;;;;;26.08;38.48;100004.72;5066268;28;20028;-84
2022/06/15 07:18:02;;;;;;;1.55;1.27;;;;;;;26.11;35.78;100011.75;5066813;28;20056;-84
2022/06/15 07:20:30;;;;;;;1.38;1.05;;;;;;;25.90;36.10;99989.84;5065627;28;20048;-85
2022/06/15 07:22:56;;;;;;;1.00;0.60;;;;;;;26.02;36.51;100002.47;5066594;28;20037;-83
2022/06/15 07:25:22;;;;;;;0.52;0.52;;;;;;;26.36;37.77;99999.06;5066416;28;20535;-85
2022/06/15 07:27:48;;;;;;;0.98;0.70;;;;;;;26.54;35.61;99996.78;5065506;28;20048;-84
2022/06/15 07:30:18;;;;;;;0.82;0.60;;;;;;;26.32;35.38;99989.47;5066521;28;20133;-84
2022/06/15 07:32:43;;;;;;;0.85;0.52;;;;;;;26.27;35.83;99979.88;5048257;28;20029;-83
2022/06/15 07:35:21;;;;;;;2.42;0.98;;;;;;;26.29;35.65;100012.22;5066260;28;20032;-84
2022/06/15 07:37:47;;;;;;;0.68;0.68;;;;;;;26.22;36.01;99997.41;5065410;28;20037;-86
2022/06/15 07:40:13;;;;;;;1.60;0.70;;;;;;;26.03;35.32;99973.63;5066138;28;20043;-85
2022/06/15 07:42:40;;;;;;;1.55;0.82;;;;;;;26.14;35.25;100010.66;5066058;28;20466;-85
2022/06/15 07:45:06;;;;;;;2.88;1.90;;;;;;;26.03;35.22;99997.94;5069328;28;20678;-85
2022/06/15 07:50:17;;;;;;;0.90;0.60;;;;;;;27.24;37.02;100003.94;5068597;28;20047;-85
2022/06/15 07:52:44;;;;;;;1.27;1.10;;;;;;;27.16;36.43;99991.03;5068917;28;20039;-85
2022/06/15 07:55:14;;;;;;;3.38;1.35;;;;;;;27.14;35.31;100011.97;5051689;28;20119;-85
2022/06/15 07:57:39;;;;;;;1.25;0.85;;;;;;;26.84;35.59;99996.28;5051964;28;20149;-86
2022/06/15 08:00:07;;;;;;;8.15;1.00;;;;;;;26.86;36.22;99994.31;5069813;28;20067;-85
2022/06/15 08:02:33;;;;;;;2.47;0.93;;;;;;;27.07;33.28;99991.75;5068949;28;20402;-85
2022/06/15 08:04:58;;;;;;;3.10;0.70;;;;;;;27.18;33.25;99987.34;5069084;28;20043;-85
2022/06/15 08:07:24;;;;;;;1.20;0.93;;;;;;;27.91;34.62;99995.91;5068723;28;20032;-85
2022/06/15 08:09:49;;;;;;;0.82;0.75;;;;;;;27.65;34.73;99980.81;5068931;28;20035;-86
2022/06/15 08:12:16;;;;;;;0.40;0.40;;;;;;;27.11;31.77;99982.41;5069669;28;20754;-86
2022/06/15 08:14:53;;;;;;;1.55;0.88;;;;;;;27.25;37.16;99988.56;5068892;28;20040;-86
2022/06/15 08:17:21;;;;;;;2.92;0.90;;;;;;;27.48;34.39;100000.28;5069633;28;20029;-86
2022/06/15 08:19:53;;;;;;;1.70;0.93;;;;;;;28.01;34.42;99988.78;5068919;28;20131;-86
2022/06/15 08:22:19;;;;;;;0.52;0.52;;;;;;;28.34;34.31;99995.91;5069336;28;20028;-87
2022/06/15 08:24:46;;;;;;;1.58;0.85;;;;;;;27.94;33.95;99985.66;5069405;28;20037;-87
2022/06/15 08:27:16;;;;;;;1.75;0.73;;;;;;;28.06;36.10;99993.81;5070261;28;20165;-85
2022/06/15 08:29:43;;;;;;;0.75;0.60;;;;;;;28.43;35.12;100009.69;5069040;28;20053;-86
2022/06/15 08:32:10;;;;;;;0.52;0.52;;;;;;;28.86;34.61;99985.16;5069139;28;20043;-86
2022/06/15 08:34:37;;;;;;;0.65;0.60;;;;;;;28.72;34.17;99969.22;5069133;28;20462;-86
2022/06/15 08:37:05;;;;;;;4.28;0.75;;;;;;;28.78;34.99;99976.84;5068557;28;20097;-87
2022/06/15 08:39:31;;;;;;;1.13;0.98;;;;;;;28.70;33.48;99982.94;5069413;28;20036;-86
2022/06/15 08:42:27;;;;;;;1.25;0.65;;;;;;;29.22;30.82;99996.53;5068823;28;20029;-86
2022/06/15 08:44:53;;;;;;;2.97;0.82;;;;;;;28.84;31.63;100000.72;5069730;28;20083;-86
2022/06/15 08:47:47;;;;;;;0.77;0.60;;;;;;;29.02;35.70;99965.66;5068959;28;20498;-86
2022/06/15 08:50:36;;;;;;;0.47;0.45;;;;;;;28.50;32.02;99998.19;5067982;28;20040;-85
2022/06/15 08:53:29;;;;;;;2.05;0.52;;;;;;;28.20;33.52;99990.78;5068775;28;20504;-86
2022/06/15 08:56:11;;;;;;;1.80;0.73;;;;;;;27.73;33.89;99974.75;5067386;28;20519;-84
2022/06/15 08:58:43;;;;;;;1.23;0.80;;;;;;;28.40;35.25;100000.78;5069046;28;20107;-84
2022/06/15 09:01:29;;;;;;;1.58;0.90;;;;;;;28.52;31.19;99957.34;5068926;28;20142;-84
2022/06/15 09:04:12;;;;;;;0.77;0.77;;;;;;;29.12;34.11;99963.00;5048756;28;20044;-85
2022/06/15 09:06:51;;;;;;;1.15;0.65;;;;;;;28.96;35.36;99987.06;5048581;28;20561;-86
2022/06/15 09:09:42;;;;;;;2.17;1.15;;;;;;;28.67;32.39;99988.63;5048940;28;20044;-86
2022/06/15 09:15:12;;;;;;;1.33;0.85;;;;;;;28.58;34.12;99974.00;5067949;28;20520;-87
2022/06/15 09:17:39;;;;;;;1.20;0.70;;;;;;;28.79;31.78;99983.13;5068399;28;20036;-85
2022/06/15 09:20:20;;;;;;;0.68;0.57;;;;;;;28.65;32.54;99959.88;5049150;28;20533;-84
2022/06/15 09:22:56;;;;;;;1.23;0.95;;;;;;;28.51;31.33;99961.06;5067118;28;20414;-84
2022/06/15 09:25:45;;;;;;;1.88;1.05;;;;;;;28.48;31.03;99975.72;5065901;28;20368;-85
2022/06/15 09:28:20;;;;;;;1.75;1.13;;;;;;;29.16;30.08;99982.59;5067985;28;20036;-86
2022/06/15 09:30:47;;;;;;;0.60;0.57;;;;;;;29.44;31.73;99962.00;5068665;28;20556;-85
2022/06/15 09:33:22;;;;;;;1.02;0.82;;;;;;;29.35;31.96;99955.56;5068687;28;20040;-85
2022/06/15 09:35:52;;;;;;;0.52;0.52;;;;;;;29.48;32.74;99959.88;5068803;28;20031;-85
2022/06/15 09:38:18;;;;;;;0.85;0.73;;;;;;;29.14;29.96;99971.88;5068297;28;20040;-85
2022/06/15 09:40:49;;;;;;;0.93;0.70;;;;;;;29.46;34.17;99981.75;5068110;28;20032;-86
2022/06/15 09:43:15;;;;;;;1.10;0.75;;;;;;;29.58;32.25;99974.34;5068152;28;20032;-86
2022/06/15 09:46:05;;;;;;;1.58;0.90;;;;;;;29.33;35.16;99960.25;5068237;28;20043;-85
2022/06/15 09:48:49;;;;;;;0.75;0.73;;;;;;;29.35;36.44;99933.81;5068034;28;20032;-84
2022/06/15 09:51:31;;;;;;;1.00;0.82;;;;;;;29.94;33.34;99967.44;5067752;28;20059;-86
2022/06/15 09:54:16;;;;;;;0.88;0.63;;;;;;;29.73;32.54;99961.22;5067417;28;20044;-86
2022/06/15 09:56:41;;;;;;;0.88;0.55;;;;;;;30.01;30.28;99954.13;5068081;28;20043;-86
2022/06/15 09:59:12;;;;;;;1.05;0.95;;;;;;;30.26;32.13;99951.84;5067428;28;20040;-86
2022/06/15 10:01:45;;;;;;;1.23;0.88;;;;;;;29.91;30.45;99964.16;5049540;28;20071;-85
2022/06/15 10:04:25;;;;;;;1.42;1.00;;;;;;;30.74;31.91;99939.19;5067474;28;20032;-86
2022/06/15 10:06:55;;;;;;;0.98;0.80;;;;;;;29.76;30.15;99953.63;5067295;28;20035;-85
2022/06/15 10:09:29;;;;;;;0.43;0.40;;;;;;;29.70;31.54;99954.19;5067560;28;20024;-84
2022/06/15 10:14:43;;;;;;;1.13;0.95;;;;;;;29.27;37.68;99956.25;5067104;28;20426;-85
2022/06/15 10:17:23;;;;;;;0.95;0.80;;;;;;;29.84;34.35;99982.88;5067539;28;20028;-85
2022/06/15 10:19:51;;;;;;;1.40;1.02;;;;;;;29.67;31.09;99965.34;5066731;28;20036;-84
2022/06/15 10:22:25;;;;;;;1.35;0.82;;;;;;;29.83;31.57;99948.56;5067312;28;20028;-85
2022/06/15 10:24:52;;;;;;;0.75;0.70;;;;;;;30.29;35.30;99957.00;5066924;28;20529;-86
2022/06/15 10:27:23;;;;;;;5.72;1.23;;;;;;;30.32;34.09;99956.69;5066889;28;20765;-87
2022/06/15 10:30:00;;;;;;;1.23;0.90;;;;;;;29.88;32.49;99948.97;5066300;28;20486;-85
2022/06/15 10:32:26;;;;;;;1.00;0.60;;;;;;;29.51;33.78;99940.59;5066681;28;20044;-85
2022/06/15 10:35:03;;;;;;;1.60;1.08;;;;;;;29.45;37.39;99917.53;5066917;28;20043;-85
2022/06/15 10:37:41;;;;;;;4.35;1.33;;;;;;;29.77;34.04;99952.66;5065951;28;20040;-85
2022/06/15 10:40:28;;;;;;;1.98;1.00;;;;;;;30.31;34.55;99955.00;5067252;28;20029;-84
2022/06/15 10:43:05;;;;;;;2.78;1.48;;;;;;;30.53;35.94;99960.16;5066506;28;20028;-84
2022/06/15 10:45:36;;;;;;;1.40;1.13;;;;;;;29.91;30.54;99937.81;5067121;28;20551;-82
2022/06/15 10:48:06;;;;;;;1.73;0.90;;;;;;;29.66;34.62;99947.34;5066709;28;20032;-85
2022/06/15 10:51:12;;;;;;;1.45;0.82;;;;;;;30.15;34.06;99944.69;5066082;28;20530;-86
2022/06/15 10:53:48;;;;;;;4.05;1.25;;;;;;;30.79;36.49;99923.28;5064758;28;20048;-86
2022/06/15 11:02:41;;;;;;;1.65;0.98;;;;;;;30.49;32.97;99920.66;5066192;28;20043;-86
2022/06/15 11:05:10;;;;;;;3.55;2.17;;;;;;;31.18;33.14;99945.81;5066917;28;20115;-85
2022/06/15 11:07:52;;;;;;;2.10;1.33;;;;;;;30.75;31.93;99917.28;5066122;28;20502;-88
2022/06/15 11:10:32;;;;;;;1.15;0.93;;;;;;;31.33;32.34;99931.69;5048045;28;20033;-87
2022/06/15 11:13:00;;;;;;;1.25;0.90;;;;;;;31.09;31.04;99935.81;5066549;28;20885;-86
2022/06/15 11:18:44;;;;;;;1.48;1.38;;;;;;;30.25;32.64;99922.94;5005449;28;20038;-85
2022/06/15 11:21:09;;;;;;;1.20;1.00;;;;;;;31.16;31.24;99926.03;5008569;28;20033;-87
2022/06/15 11:24:17;;;;;;;2.53;1.67;;;;;;;31.53;30.63;99935.19;5037595;28;20454;-87
2022/06/15 11:26:57;;;;;;;1.67;0.93;;;;;;;31.08;31.61;99927.78;5052164;28;20037;-88
2022/06/15 11:29:44;;;;;;;2.13;1.50;;;;;;;30.96;32.38;99927.09;5070986;28;20135;-87
2022/06/15 11:32:20;;;;;;;1.85;1.20;;;;;;;31.09;32.16;99894.94;5070785;28;20045;-84
2022/06/15 11:35:12;;;;;;;1.25;1.00;;;;;;;31.46;31.53;99926.72;5070694;28;20040;-84
2022/06/15 11:37:59;;;;;;;1.38;0.70;;;;;;;31.54;29.79;99905.06;5032882;28;20474;-86
2022/06/15 11:40:52;;;;;;;9.43;4.45;;;;;;;31.80;32.30;99928.00;5070985;28;20028;-84
2022/06/15 11:43:22;;;;;;;1.92;1.17;;;;;;;31.17;28.33;99903.25;5070515;28;20039;-85
2022/06/15 11:46:00;;;;;;;1.00;0.85;;;;;;;30.28;33.79;99879.97;5070392;28;20033;-84
2022/06/15 11:48:50;;;;;;;1.98;0.90;;;;;;;30.61;30.88;99905.00;5070580;28;20028;-85
2022/06/15 11:51:16;;;;;;;0.60;0.57;;;;;;;31.17;29.90;99935.06;5069915;28;20430;-87
2022/06/15 11:53:55;;;;;;;2.33;1.30;;;;;;;31.50;30.37;99905.50;5070213;28;20043;-88
2022/06/15 11:56:23;;;;;;;0.98;0.77;;;;;;;31.04;29.36;99922.63;5070086;28;20655;-85
2022/06/15 11:59:23;;;;;;;2.30;0.80;;;;;;;31.38;29.06;99922.03;5070099;28;20028;-87
2022/06/15 12:02:00;;;;;;;1.25;1.05;;;;;;;31.60;29.10;99917.22;5052682;28;20577;-87
2022/06/15 12:04:43;;;;;;;0.93;0.88;;;;;;;31.73;30.87;99925.88;5069995;28;20036;-87
2022/06/15 12:07:17;;;;;;;3.22;1.38;;;;;;;31.20;31.56;99932.03;5069235;28;20131;-86
2022/06/15 12:10:01;;;;;;;1.25;1.00;;;;;;;31.16;31.28;99928.75;5051380;28;20468;-89
2022/06/15 12:12:40;;;;;;;1.67;1.13;;;;;;;31.57;32.21;99931.16;5050077;28;20033;-88
2022/06/15 12:15:26;;;;;;;2.33;1.23;;;;;;;31.40;32.34;99916.44;5049299;28;20578;-88
2022/06/15 12:17:55;;;;;;;2.05;1.20;;;;;;;32.29;29.04;99928.47;5050167;28;20134;-88